createdAt,value
2023-07-29T00:00:29.185Z,100.00
2023-07-29T00:05:54.735Z,100.00
2023-07-29T00:11:00.189Z,100.00
2023-07-29T00:16:06.018Z,100.00
2023-07-29T00:21:11.960Z,100.00
2023-07-29T00:26:17.825Z,100.00
2023-07-29T00:31:23.396Z,100.00
2023-07-29T00:36:30.321Z,100.00
2023-07-29T00:41:35.991Z,100.00
2023-07-29T00:46:43.487Z,100.00
2023-07-29T00:51:49.225Z,100.00
2023-07-29T00:56:54.940Z,100.00
2023-07-29T01:02:01.020Z,100.00
2023-07-29T01:07:15.545Z,100.00
2023-07-29T01:12:25.528Z,100.00
2023-07-29T01:17:35.093Z,100.00
2023-07-29T01:22:41.309Z,100.00
2023-07-29T01:27:48.382Z,100.00
2023-07-29T01:33:01.172Z,100.00
2023-07-29T01:38:11.199Z,100.00
2023-07-29T01:43:17.067Z,100.00
2023-07-29T01:48:22.810Z,100.00
2023-07-29T01:53:29.534Z,100.00
2023-07-29T01:58:35.204Z,100.00
2023-07-29T02:03:40.735Z,100.00
2023-07-29T02:08:46.254Z,100.00
2023-07-29T02:13:52.024Z,100.00
2023-07-29T02:18:57.661Z,100.00
2023-07-29T02:24:03.226Z,100.00
2023-07-29T02:29:08.950Z,100.00
2023-07-29T02:34:15.049Z,100.00
2023-07-29T02:39:21.110Z,100.00
2023-07-29T02:44:27.559Z,100.00
2023-07-29T02:49:33.289Z,100.00
2023-07-29T02:54:38.847Z,100.00
2023-07-29T02:59:45.034Z,100.00
2023-07-29T03:04:51.553Z,100.00
2023-07-29T03:09:57.126Z,100.00
2023-07-29T03:15:03.190Z,100.00
2023-07-29T03:20:11.132Z,100.00
2023-07-29T03:25:17.566Z,100.00
2023-07-29T03:30:23.543Z,100.00
2023-07-29T03:35:29.887Z,100.00
2023-07-29T03:40:35.610Z,100.00
2023-07-29T03:45:41.959Z,100.00
2023-07-29T03:50:47.492Z,100.00
2023-07-29T03:55:52.977Z,100.00
2023-07-29T04:00:58.417Z,100.00
2023-07-29T04:06:04.112Z,100.00
2023-07-29T04:11:10.321Z,100.00
2023-07-29T04:16:15.957Z,100.00
2023-07-29T04:21:21.657Z,100.00
2023-07-29T04:26:27.042Z,100.00
2023-07-29T04:31:32.893Z,100.00
2023-07-29T04:36:38.652Z,100.00
2023-07-29T04:41:44.785Z,100.00
2023-07-29T04:46:50.332Z,100.00
2023-07-29T04:51:55.808Z,100.00
2023-07-29T04:57:01.530Z,100.00
2023-07-29T05:02:07.905Z,100.00
2023-07-29T05:07:13.886Z,100.00
2023-07-29T05:12:19.499Z,100.00
2023-07-29T05:17:25.411Z,100.00
2023-07-29T05:22:31.817Z,100.00
2023-07-29T05:27:37.393Z,100.00
2023-07-29T05:32:42.976Z,100.00
2023-07-29T05:37:48.904Z,100.00
2023-07-29T05:42:54.672Z,100.00
2023-07-29T05:48:00.747Z,100.00
2023-07-29T05:53:07.091Z,98.72
2023-07-29T05:58:13.579Z,95.54
2023-07-29T06:03:19.760Z,92.94
2023-07-29T06:08:29.367Z,89.91
2023-07-29T06:13:35.137Z,77.90
2023-07-29T06:18:40.861Z,65.34
2023-07-29T06:23:46.823Z,55.31
2023-07-29T06:28:54.228Z,49.95
2023-07-29T06:34:06.084Z,45.77
2023-07-29T06:39:12.411Z,41.87
2023-07-29T06:44:18.128Z,39.31
2023-07-29T06:49:24.686Z,38.55
2023-07-29T06:54:31.149Z,37.27
2023-07-29T06:59:41.478Z,35.14
2023-07-29T07:04:46.918Z,33.69
2023-07-29T07:09:52.332Z,33.27
2023-07-29T07:14:58.101Z,31.97
2023-07-29T07:20:04.582Z,32.65
2023-07-29T07:25:09.449Z,32.70
2023-07-29T07:30:15.632Z,31.97
2023-07-29T07:35:20.026Z,31.43
2023-07-29T07:40:25.753Z,30.35
2023-07-29T07:45:32.925Z,30.50
2023-07-29T07:50:38.552Z,32.33
2023-07-29T07:55:44.205Z,35.63
2023-07-29T08:00:49.882Z,36.74
2023-07-29T08:05:57.981Z,35.20
2023-07-29T08:11:03.725Z,33.94
2023-07-29T08:16:09.531Z,33.63
2023-07-29T08:21:16.865Z,35.58
2023-07-29T08:26:22.711Z,37.11
2023-07-29T08:31:35.663Z,39.24
2023-07-29T08:36:58.268Z,38.67
2023-07-29T08:42:07.995Z,36.85
2023-07-29T08:47:16.035Z,34.89
2023-07-29T08:52:26.306Z,32.55
2023-07-29T08:57:34.655Z,32.53
2023-07-29T09:02:42.626Z,33.53
2023-07-29T09:07:54.978Z,34.64
2023-07-29T09:13:07.120Z,33.10
2023-07-29T09:18:16.745Z,32.28
2023-07-29T09:23:22.360Z,30.54
2023-07-29T09:28:33.140Z,31.82
2023-07-29T09:33:38.893Z,33.24
2023-07-29T09:38:45.929Z,36.26
2023-07-29T09:43:59.348Z,37.05
2023-07-29T09:49:07.061Z,36.22
2023-07-29T09:54:14.736Z,34.06
2023-07-29T09:59:25.740Z,35.67
2023-07-29T10:04:32.325Z,33.41
2023-07-29T10:09:40.377Z,32.41
2023-07-29T10:14:49.271Z,32.54
2023-07-29T10:19:58.119Z,31.22
2023-07-29T10:25:08.521Z,30.86
2023-07-29T10:30:17.331Z,29.90
2023-07-29T10:35:23.144Z,31.02
2023-07-29T10:40:44.248Z,31.16
2023-07-29T10:45:54.045Z,31.28
2023-07-29T10:51:34.038Z,31.91
2023-07-29T10:56:43.889Z,31.80
2023-07-29T11:01:59.426Z,31.01
2023-07-29T11:07:27.652Z,29.75
2023-07-29T11:12:55.459Z,29.01
2023-07-29T11:18:03.448Z,30.36
2023-07-29T11:23:09.933Z,29.67
2023-07-29T11:28:16.437Z,29.43
2023-07-29T11:33:23.584Z,29.21
2023-07-29T11:38:32.147Z,28.21
2023-07-29T11:43:40.392Z,30.01
2023-07-29T11:48:45.512Z,30.54
2023-07-29T11:53:52.184Z,31.37
2023-07-29T11:58:57.943Z,32.91
2023-07-29T12:04:03.724Z,33.31
2023-07-29T12:09:10.328Z,33.54
2023-07-29T12:14:17.377Z,34.80
2023-07-29T12:19:23.594Z,34.83
2023-07-29T12:24:30.640Z,34.26
2023-07-29T12:29:43.200Z,35.77
2023-07-29T12:34:49.029Z,35.64
2023-07-29T12:39:54.523Z,36.00
2023-07-29T12:45:00.038Z,36.64
2023-07-29T12:50:07.461Z,37.27
2023-07-29T12:55:15.976Z,36.04
2023-07-29T13:00:21.627Z,36.33
2023-07-29T13:05:27.440Z,37.65
2023-07-29T13:10:33.108Z,35.64
2023-07-29T13:15:38.626Z,35.95
2023-07-29T13:20:44.125Z,36.42
2023-07-29T13:25:49.853Z,35.50
2023-07-29T13:30:55.546Z,35.87
2023-07-29T13:36:01.235Z,36.40
2023-07-29T13:41:07.568Z,36.71
2023-07-29T13:46:16.169Z,37.06
2023-07-29T13:51:23.059Z,36.42
2023-07-29T13:56:31.272Z,36.62
2023-07-29T14:01:39.421Z,37.28
2023-07-29T14:06:48.772Z,38.23
2023-07-29T14:11:56.758Z,38.64
2023-07-29T14:17:02.945Z,39.92
2023-07-29T14:22:09.274Z,40.00
2023-07-29T14:27:17.463Z,40.74
2023-07-29T14:32:25.634Z,41.00
2023-07-29T14:37:33.242Z,42.26
2023-07-29T14:42:38.910Z,42.97
2023-07-29T14:47:44.627Z,42.80
2023-07-29T14:52:50.427Z,43.14
2023-07-29T14:57:56.102Z,43.80
2023-07-29T15:03:01.965Z,45.40
2023-07-29T15:08:09.087Z,45.23
2023-07-29T15:13:15.593Z,43.65
2023-07-29T15:18:21.227Z,44.54
2023-07-29T15:23:27.014Z,44.15
2023-07-29T15:28:34.344Z,44.85
2023-07-29T15:33:41.411Z,43.70
2023-07-29T15:38:49.866Z,44.04
2023-07-29T15:43:55.743Z,44.97
2023-07-29T15:49:01.592Z,44.31
2023-07-29T15:54:08.382Z,44.50
2023-07-29T15:59:14.183Z,44.32
2023-07-29T16:04:20.153Z,45.25
2023-07-29T16:09:25.700Z,45.69
2023-07-29T16:14:32.801Z,45.92
2023-07-29T16:19:55.899Z,45.72
2023-07-29T16:25:01.982Z,45.60
2023-07-29T16:30:09.772Z,45.69
2023-07-29T16:35:15.553Z,46.18
2023-07-29T16:40:21.610Z,45.79
2023-07-29T16:45:31.667Z,45.68
2023-07-29T16:50:36.331Z,45.51
2023-07-29T16:55:42.620Z,45.78
2023-07-29T17:00:48.327Z,46.28
2023-07-29T17:05:57.109Z,46.76
2023-07-29T17:11:03.389Z,47.31
2023-07-29T17:16:09.741Z,47.64
2023-07-29T17:21:15.441Z,48.61
2023-07-29T17:26:21.084Z,49.56
2023-07-29T17:31:27.187Z,50.32
2023-07-29T17:36:33.066Z,50.35
2023-07-29T17:41:39.105Z,50.76
2023-07-29T17:46:45.459Z,51.19
2023-07-29T17:51:51.409Z,52.67
2023-07-29T17:56:57.005Z,52.78
2023-07-29T18:02:02.892Z,53.65
2023-07-29T18:07:09.879Z,54.46
2023-07-29T18:12:16.196Z,55.10
2023-07-29T18:17:21.947Z,56.47
2023-07-29T18:22:28.144Z,57.96
2023-07-29T18:27:33.865Z,59.46
2023-07-29T18:32:39.590Z,60.67
2023-07-29T18:37:45.630Z,63.57
2023-07-29T18:42:51.406Z,63.72
2023-07-29T18:47:57.355Z,63.73
2023-07-29T18:53:03.019Z,64.10
2023-07-29T18:58:08.654Z,65.31
2023-07-29T19:03:15.372Z,67.31
2023-07-29T19:08:20.881Z,67.95
2023-07-29T19:13:26.557Z,68.63
2023-07-29T19:18:32.440Z,69.91
2023-07-29T19:23:38.247Z,70.95
2023-07-29T19:28:44.515Z,72.39
2023-07-29T19:33:50.231Z,72.18
2023-07-29T19:38:55.761Z,73.02
2023-07-29T19:44:16.646Z,72.66
2023-07-29T19:49:27.091Z,72.60
2023-07-29T19:54:32.759Z,72.07
2023-07-29T19:59:48.693Z,71.88
2023-07-29T20:04:56.142Z,71.84
2023-07-29T20:10:01.852Z,71.83
2023-07-29T20:15:09.179Z,71.98
2023-07-29T20:20:14.943Z,72.21
2023-07-29T20:25:20.724Z,72.52
2023-07-29T20:30:26.344Z,72.92
2023-07-29T20:35:31.852Z,73.10
2023-07-29T20:40:37.543Z,73.47
2023-07-29T20:45:43.209Z,73.93
2023-07-29T20:50:48.706Z,74.03
2023-07-29T20:55:54.630Z,74.34
2023-07-29T21:01:00.430Z,74.64
2023-07-29T21:06:10.105Z,75.16
2023-07-29T21:11:15.667Z,76.04
2023-07-29T21:16:21.658Z,76.92
2023-07-29T21:21:29.880Z,82.26
2023-07-29T21:26:36.473Z,88.32
2023-07-29T21:31:42.507Z,90.91
2023-07-29T21:36:48.461Z,93.95
2023-07-29T21:41:53.929Z,96.40
2023-07-29T21:46:59.671Z,98.99
2023-07-29T21:52:05.943Z,100.00
2023-07-29T21:57:11.474Z,100.00
2023-07-29T22:02:19.996Z,100.00
2023-07-29T22:07:25.787Z,100.00
2023-07-29T22:12:32.577Z,100.00
2023-07-29T22:17:38.229Z,100.00
2023-07-29T22:22:44.100Z,100.00
2023-07-29T22:27:49.736Z,100.00
2023-07-29T22:32:55.577Z,100.00
2023-07-29T22:38:01.248Z,100.00
2023-07-29T22:43:06.968Z,100.00
2023-07-29T22:48:12.593Z,100.00
2023-07-29T22:53:18.852Z,100.00
2023-07-29T22:58:25.092Z,100.00
2023-07-29T23:03:30.732Z,100.00
2023-07-29T23:08:36.532Z,100.00
2023-07-29T23:13:42.573Z,100.00
2023-07-29T23:18:48.208Z,100.00
2023-07-29T23:23:53.803Z,100.00
2023-07-29T23:28:59.448Z,100.00
2023-07-29T23:34:05.053Z,100.00
2023-07-29T23:39:10.680Z,100.00
2023-07-29T23:44:16.198Z,100.00
2023-07-29T23:49:22.024Z,100.00
2023-07-29T23:54:27.642Z,100.00
2023-07-29T23:59:33.322Z,100.00
